sensor_id;sensor_type;location;lat;lon;timestamp;P1;durP1;ratioP1;P2;durP2;ratioP2
31126;SDS011;17775;57.948;12.514;2022-07-05T00:07:31;5.95;;;1.90;;
31126;SDS011;17775;57.948;12.514;2022-07-05T00:09:58;13.82;;;2.85;;
31126;SDS011;17775;57.948;12.514;2022-07-05T00:12:29;11.57;;;2.25;;
31126;SDS011;17775;57.948;12.514;2022-07-05T00:15:00;7.57;;;2.05;;
31126;SDS011;17775;57.948;12.514;2022-07-05T00:17:27;7.10;;;2.20;;
31126;SDS011;17775;57.948;12.514;2022-07-05T00:19:53;9.73;;;2.50;;
31126;SDS011;17775;57.948;12.514;2022-07-05T00:22:20;7.82;;;2.22;;
31126;SDS011;17775;57.948;12.514;2022-07-05T00:24:51;7.40;;;1.95;;
31126;SDS011;17775;57.948;12.514;2022-07-05T00:27:18;7.28;;;1.95;;
31126;SDS011;17775;57.948;12.514;2022-07-05T00:29:46;10.35;;;1.75;;
31126;SDS011;17775;57.948;12.514;2022-07-05T00:32:13;14.30;;;2.35;;
31126;SDS011;17775;57.948;12.514;2022-07-05T00:34:39;10.13;;;2.25;;
31126;SDS011;17775;57.948;12.514;2022-07-05T00:37:06;12.88;;;2.33;;
31126;SDS011;17775;57.948;12.514;2022-07-05T00:39:32;12.20;;;1.83;;
31126;SDS011;17775;57.948;12.514;2022-07-05T00:42:00;8.32;;;2.05;;
31126;SDS011;17775;57.948;12.514;2022-07-05T00:44:28;11.40;;;2.83;;
31126;SDS011;17775;57.948;12.514;2022-07-05T00:46:54;7.03;;;2.22;;
31126;SDS011;17775;57.948;12.514;2022-07-05T00:49:23;10.52;;;2.22;;
31126;SDS011;17775;57.948;12.514;2022-07-05T00:51:49;7.22;;;1.95;;
31126;SDS011;17775;57.948;12.514;2022-07-05T00:54:36;7.50;;;1.80;;
31126;SDS011;17775;57.948;12.514;2022-07-05T00:57:03;10.82;;;2.47;;
31126;SDS011;17775;57.948;12.514;2022-07-05T00:59:30;12.65;;;2.78;;
31126;SDS011;17775;57.948;12.514;2022-07-05T01:01:57;10.18;;;2.22;;
31126;SDS011;17775;57.948;12.514;2022-07-05T01:04:24;13.23;;;2.50;;
31126;SDS011;17775;57.948;12.514;2022-07-05T01:06:51;12.55;;;2.33;;
31126;SDS011;17775;57.948;12.514;2022-07-05T01:09:18;9.25;;;2.20;;
31126;SDS011;17775;57.948;12.514;2022-07-05T01:11:46;12.45;;;2.50;;
31126;SDS011;17775;57.948;12.514;2022-07-05T01:14:13;12.13;;;3.45;;
31126;SDS011;17775;57.948;12.514;2022-07-05T01:16:39;12.48;;;3.22;;
31126;SDS011;17775;57.948;12.514;2022-07-05T01:19:06;16.50;;;3.35;;
31126;SDS011;17775;57.948;12.514;2022-07-05T01:21:37;9.80;;;2.55;;
31126;SDS011;17775;57.948;12.514;2022-07-05T01:24:04;12.07;;;2.10;;
31126;SDS011;17775;57.948;12.514;2022-07-05T01:26:31;9.48;;;2.55;;
31126;SDS011;17775;57.948;12.514;2022-07-05T01:28:58;11.85;;;2.80;;
31126;SDS011;17775;57.948;12.514;2022-07-05T01:31:25;13.38;;;3.10;;
31126;SDS011;17775;57.948;12.514;2022-07-05T01:33:51;14.68;;;3.08;;
31126;SDS011;17775;57.948;12.514;2022-07-05T01:36:18;8.60;;;2.30;;
31126;SDS011;17775;57.948;12.514;2022-07-05T01:38:45;16.33;;;2.60;;
31126;SDS011;17775;57.948;12.514;2022-07-05T01:41:11;11.70;;;2.90;;
31126;SDS011;17775;57.948;12.514;2022-07-05T01:43:38;6.97;;;2.20;;
31126;SDS011;17775;57.948;12.514;2022-07-05T01:46:05;11.65;;;3.65;;
31126;SDS011;17775;57.948;12.514;2022-07-05T01:48:35;8.80;;;2.75;;
31126;SDS011;17775;57.948;12.514;2022-07-05T01:51:04;17.25;;;2.90;;
31126;SDS011;17775;57.948;12.514;2022-07-05T01:53:32;12.65;;;2.70;;
31126;SDS011;17775;57.948;12.514;2022-07-05T01:55:59;10.57;;;2.40;;
31126;SDS011;17775;57.948;12.514;2022-07-05T01:58:25;13.02;;;3.10;;
31126;SDS011;17775;57.948;12.514;2022-07-05T02:00:53;18.85;;;2.88;;
31126;SDS011;17775;57.948;12.514;2022-07-05T02:03:20;11.55;;;3.08;;
31126;SDS011;17775;57.948;12.514;2022-07-05T02:06:06;12.35;;;2.75;;
31126;SDS011;17775;57.948;12.514;2022-07-05T02:08:34;15.18;;;2.88;;
31126;SDS011;17775;57.948;12.514;2022-07-05T02:11:02;15.18;;;4.05;;
31126;SDS011;17775;57.948;12.514;2022-07-05T02:13:28;14.80;;;4.05;;
31126;SDS011;17775;57.948;12.514;2022-07-05T02:15:55;10.68;;;2.90;;
31126;SDS011;17775;57.948;12.514;2022-07-05T02:18:21;10.52;;;3.05;;
31126;SDS011;17775;57.948;12.514;2022-07-05T02:20:48;14.63;;;2.88;;
31126;SDS011;17775;57.948;12.514;2022-07-05T02:23:14;9.70;;;1.95;;
31126;SDS011;17775;57.948;12.514;2022-07-05T02:25:41;12.45;;;2.20;;
31126;SDS011;17775;57.948;12.514;2022-07-05T02:28:09;9.80;;;2.13;;
31126;SDS011;17775;57.948;12.514;2022-07-05T02:30:36;17.77;;;2.92;;
31126;SDS011;17775;57.948;12.514;2022-07-05T02:33:03;14.90;;;2.80;;
31126;SDS011;17775;57.948;12.514;2022-07-05T02:35:29;17.13;;;3.88;;
31126;SDS011;17775;57.948;12.514;2022-07-05T02:37:55;12.98;;;2.83;;
31126;SDS011;17775;57.948;12.514;2022-07-05T02:40:22;8.65;;;2.40;;
31126;SDS011;17775;57.948;12.514;2022-07-05T02:42:48;5.65;;;2.30;;
31126;SDS011;17775;57.948;12.514;2022-07-05T02:45:15;11.00;;;2.58;;
31126;SDS011;17775;57.948;12.514;2022-07-05T02:47:41;10.48;;;2.33;;
31126;SDS011;17775;57.948;12.514;2022-07-05T02:50:09;11.50;;;2.45;;
31126;SDS011;17775;57.948;12.514;2022-07-05T02:52:36;11.48;;;2.50;;
31126;SDS011;17775;57.948;12.514;2022-07-05T02:55:02;12.70;;;2.33;;
31126;SDS011;17775;57.948;12.514;2022-07-05T02:57:29;8.98;;;2.67;;
31126;SDS011;17775;57.948;12.514;2022-07-05T02:59:56;18.58;;;2.83;;
31126;SDS011;17775;57.948;12.514;2022-07-05T03:02:23;13.98;;;2.55;;
31126;SDS011;17775;57.948;12.514;2022-07-05T03:04:49;9.35;;;1.95;;
31126;SDS011;17775;57.948;12.514;2022-07-05T03:07:16;7.78;;;2.10;;
31126;SDS011;17775;57.948;12.514;2022-07-05T03:09:42;8.40;;;2.53;;
31126;SDS011;17775;57.948;12.514;2022-07-05T03:12:09;9.80;;;2.10;;
31126;SDS011;17775;57.948;12.514;2022-07-05T03:14:35;12.93;;;2.67;;
31126;SDS011;17775;57.948;12.514;2022-07-05T03:17:02;8.80;;;2.17;;
31126;SDS011;17775;57.948;12.514;2022-07-05T03:19:28;8.52;;;2.40;;
31126;SDS011;17775;57.948;12.514;2022-07-05T03:21:55;10.88;;;2.17;;
31126;SDS011;17775;57.948;12.514;2022-07-05T03:24:21;15.18;;;2.22;;
31126;SDS011;17775;57.948;12.514;2022-07-05T03:26:52;13.80;;;2.03;;
31126;SDS011;17775;57.948;12.514;2022-07-05T03:29:18;10.77;;;2.03;;
31126;SDS011;17775;57.948;12.514;2022-07-05T03:31:45;6.13;;;1.77;;
31126;SDS011;17775;57.948;12.514;2022-07-05T03:34:12;10.25;;;2.22;;
31126;SDS011;17775;57.948;12.514;2022-07-05T03:36:38;6.85;;;1.60;;
31126;SDS011;17775;57.948;12.514;2022-07-05T03:39:05;14.20;;;2.40;;
31126;SDS011;17775;57.948;12.514;2022-07-05T03:41:31;11.00;;;3.05;;
31126;SDS011;17775;57.948;12.514;2022-07-05T03:43:58;12.10;;;1.95;;
31126;SDS011;17775;57.948;12.514;2022-07-05T03:46:24;10.23;;;2.10;;
31126;SDS011;17775;57.948;12.514;2022-07-05T03:48:51;7.20;;;1.77;;
31126;SDS011;17775;57.948;12.514;2022-07-05T03:51:18;6.65;;;1.60;;
31126;SDS011;17775;57.948;12.514;2022-07-05T03:53:45;10.75;;;2.05;;
31126;SDS011;17775;57.948;12.514;2022-07-05T03:56:11;10.82;;;1.98;;
31126;SDS011;17775;57.948;12.514;2022-07-05T03:58:38;9.75;;;1.95;;
31126;SDS011;17775;57.948;12.514;2022-07-05T04:01:04;12.70;;;2.10;;
31126;SDS011;17775;57.948;12.514;2022-07-05T04:03:31;10.38;;;2.00;;
31126;SDS011;17775;57.948;12.514;2022-07-05T04:06:05;9.88;;;2.40;;
31126;SDS011;17775;57.948;12.514;2022-07-05T04:08:32;9.85;;;1.80;;
31126;SDS011;17775;57.948;12.514;2022-07-05T04:10:58;12.52;;;2.20;;
31126;SDS011;17775;57.948;12.514;2022-07-05T04:13:25;12.27;;;2.50;;
31126;SDS011;17775;57.948;12.514;2022-07-05T04:15:51;10.25;;;2.10;;
31126;SDS011;17775;57.948;12.514;2022-07-05T04:18:21;11.43;;;1.97;;
31126;SDS011;17775;57.948;12.514;2022-07-05T04:20:48;13.07;;;2.20;;
31126;SDS011;17775;57.948;12.514;2022-07-05T04:23:15;10.30;;;1.65;;
31126;SDS011;17775;57.948;12.514;2022-07-05T04:25:41;9.18;;;1.88;;
31126;SDS011;17775;57.948;12.514;2022-07-05T04:28:08;11.35;;;2.78;;
31126;SDS011;17775;57.948;12.514;2022-07-05T04:30:34;10.38;;;2.35;;
31126;SDS011;17775;57.948;12.514;2022-07-05T04:33:01;9.55;;;1.67;;
31126;SDS011;17775;57.948;12.514;2022-07-05T04:35:27;9.38;;;2.60;;
31126;SDS011;17775;57.948;12.514;2022-07-05T04:37:54;12.35;;;2.03;;
31126;SDS011;17775;57.948;12.514;2022-07-05T04:40:20;10.73;;;2.20;;
31126;SDS011;17775;57.948;12.514;2022-07-05T04:42:47;8.48;;;3.00;;
31126;SDS011;17775;57.948;12.514;2022-07-05T04:45:13;16.92;;;2.17;;
31126;SDS011;17775;57.948;12.514;2022-07-05T04:47:40;11.25;;;1.77;;
31126;SDS011;17775;57.948;12.514;2022-07-05T04:50:06;4.38;;;1.65;;
31126;SDS011;17775;57.948;12.514;2022-07-05T04:52:33;8.55;;;1.55;;
31126;SDS011;17775;57.948;12.514;2022-07-05T04:55:00;10.57;;;1.92;;
31126;SDS011;17775;57.948;12.514;2022-07-05T04:57:26;6.70;;;2.33;;
31126;SDS011;17775;57.948;12.514;2022-07-05T04:59:53;8.88;;;1.50;;
31126;SDS011;17775;57.948;12.514;2022-07-05T05:02:19;13.68;;;1.65;;
31126;SDS011;17775;57.948;12.514;2022-07-05T05:04:46;11.88;;;2.33;;
31126;SDS011;17775;57.948;12.514;2022-07-05T05:07:12;14.30;;;2.13;;
31126;SDS011;17775;57.948;12.514;2022-07-05T05:09:39;11.77;;;1.83;;
31126;SDS011;17775;57.948;12.514;2022-07-05T05:12:06;5.85;;;1.60;;
31126;SDS011;17775;57.948;12.514;2022-07-05T05:14:32;5.22;;;1.20;;
31126;SDS011;17775;57.948;12.514;2022-07-05T05:17:00;6.55;;;1.50;;
31126;SDS011;17775;57.948;12.514;2022-07-05T05:19:26;12.75;;;2.50;;
31126;SDS011;17775;57.948;12.514;2022-07-05T05:21:53;5.75;;;1.45;;
31126;SDS011;17775;57.948;12.514;2022-07-05T05:24:19;8.77;;;1.88;;
31126;SDS011;17775;57.948;12.514;2022-07-05T05:26:46;11.88;;;2.00;;
31126;SDS011;17775;57.948;12.514;2022-07-05T05:29:13;7.68;;;1.50;;
31126;SDS011;17775;57.948;12.514;2022-07-05T05:31:39;13.10;;;1.48;;
31126;SDS011;17775;57.948;12.514;2022-07-05T05:34:06;13.60;;;1.73;;
31126;SDS011;17775;57.948;12.514;2022-07-05T05:36:32;10.13;;;1.92;;
31126;SDS011;17775;57.948;12.514;2022-07-05T05:38:59;7.32;;;2.53;;
31126;SDS011;17775;57.948;12.514;2022-07-05T05:41:25;7.95;;;1.63;;
31126;SDS011;17775;57.948;12.514;2022-07-05T05:43:52;11.40;;;1.75;;
31126;SDS011;17775;57.948;12.514;2022-07-05T05:46:18;11.27;;;1.60;;
31126;SDS011;17775;57.948;12.514;2022-07-05T05:48:45;6.55;;;1.20;;
31126;SDS011;17775;57.948;12.514;2022-07-05T05:51:11;11.50;;;2.28;;
31126;SDS011;17775;57.948;12.514;2022-07-05T05:53:38;12.77;;;1.45;;
31126;SDS011;17775;57.948;12.514;2022-07-05T05:56:04;8.23;;;1.52;;
31126;SDS011;17775;57.948;12.514;2022-07-05T05:58:31;12.50;;;2.50;;
31126;SDS011;17775;57.948;12.514;2022-07-05T06:00:57;13.57;;;2.13;;
31126;SDS011;17775;57.948;12.514;2022-07-05T06:03:24;12.90;;;2.03;;
31126;SDS011;17775;57.948;12.514;2022-07-05T06:05:51;10.43;;;2.60;;
31126;SDS011;17775;57.948;12.514;2022-07-05T06:08:18;10.52;;;1.75;;
31126;SDS011;17775;57.948;12.514;2022-07-05T06:10:45;10.63;;;1.70;;
31126;SDS011;17775;57.948;12.514;2022-07-05T06:13:20;6.43;;;1.77;;
31126;SDS011;17775;57.948;12.514;2022-07-05T06:15:47;8.82;;;1.73;;
31126;SDS011;17775;57.948;12.514;2022-07-05T06:18:13;5.72;;;1.83;;
31126;SDS011;17775;57.948;12.514;2022-07-05T06:20:40;9.80;;;1.88;;
31126;SDS011;17775;57.948;12.514;2022-07-05T06:23:07;9.80;;;1.67;;
31126;SDS011;17775;57.948;12.514;2022-07-05T06:25:36;6.50;;;1.48;;
31126;SDS011;17775;57.948;12.514;2022-07-05T06:28:04;10.68;;;1.70;;
31126;SDS011;17775;57.948;12.514;2022-07-05T06:30:31;7.05;;;1.75;;
31126;SDS011;17775;57.948;12.514;2022-07-05T06:32:58;9.20;;;2.15;;
31126;SDS011;17775;57.948;12.514;2022-07-05T06:35:25;7.68;;;1.40;;
31126;SDS011;17775;57.948;12.514;2022-07-05T06:37:52;6.20;;;1.65;;
31126;SDS011;17775;57.948;12.514;2022-07-05T06:40:23;9.60;;;1.70;;
31126;SDS011;17775;57.948;12.514;2022-07-05T06:42:50;11.90;;;1.75;;
31126;SDS011;17775;57.948;12.514;2022-07-05T06:45:17;9.48;;;1.70;;
31126;SDS011;17775;57.948;12.514;2022-07-05T06:47:44;8.20;;;1.58;;
31126;SDS011;17775;57.948;12.514;2022-07-05T06:50:10;10.98;;;2.17;;
31126;SDS011;17775;57.948;12.514;2022-07-05T06:52:37;13.55;;;2.05;;
31126;SDS011;17775;57.948;12.514;2022-07-05T06:55:03;11.98;;;2.15;;
31126;SDS011;17775;57.948;12.514;2022-07-05T06:57:30;5.75;;;1.67;;
31126;SDS011;17775;57.948;12.514;2022-07-05T06:59:58;9.25;;;1.25;;
31126;SDS011;17775;57.948;12.514;2022-07-05T07:02:45;6.72;;;1.83;;
31126;SDS011;17775;57.948;12.514;2022-07-05T07:05:11;8.43;;;1.50;;
31126;SDS011;17775;57.948;12.514;2022-07-05T07:07:41;6.20;;;1.50;;
31126;SDS011;17775;57.948;12.514;2022-07-05T07:10:26;8.35;;;1.75;;
31126;SDS011;17775;57.948;12.514;2022-07-05T07:12:56;6.55;;;2.17;;
31126;SDS011;17775;57.948;12.514;2022-07-05T07:15:23;9.95;;;1.35;;
31126;SDS011;17775;57.948;12.514;2022-07-05T07:17:50;5.50;;;1.70;;
31126;SDS011;17775;57.948;12.514;2022-07-05T07:20:16;10.32;;;2.10;;
31126;SDS011;17775;57.948;12.514;2022-07-05T07:22:43;9.00;;;1.30;;
31126;SDS011;17775;57.948;12.514;2022-07-05T07:25:10;7.38;;;1.35;;
31126;SDS011;17775;57.948;12.514;2022-07-05T07:27:58;5.97;;;1.65;;
31126;SDS011;17775;57.948;12.514;2022-07-05T07:30:25;9.93;;;1.30;;
31126;SDS011;17775;57.948;12.514;2022-07-05T07:32:53;8.75;;;1.40;;
31126;SDS011;17775;57.948;12.514;2022-07-05T07:35:20;9.10;;;2.08;;
31126;SDS011;17775;57.948;12.514;2022-07-05T07:37:47;8.80;;;1.55;;
31126;SDS011;17775;57.948;12.514;2022-07-05T07:40:13;5.50;;;1.10;;
31126;SDS011;17775;57.948;12.514;2022-07-05T07:42:40;5.40;;;1.45;;
31126;SDS011;17775;57.948;12.514;2022-07-05T07:45:06;6.05;;;1.35;;
31126;SDS011;17775;57.948;12.514;2022-07-05T07:47:34;8.18;;;1.60;;
31126;SDS011;17775;57.948;12.514;2022-07-05T07:50:01;5.88;;;1.33;;
31126;SDS011;17775;57.948;12.514;2022-07-05T07:52:28;9.10;;;1.33;;
31126;SDS011;17775;57.948;12.514;2022-07-05T07:54:56;8.43;;;1.40;;
31126;SDS011;17775;57.948;12.514;2022-07-05T07:57:23;6.65;;;1.27;;
31126;SDS011;17775;57.948;12.514;2022-07-05T07:59:50;10.50;;;2.45;;
31126;SDS011;17775;57.948;12.514;2022-07-05T08:02:16;6.72;;;2.45;;
31126;SDS011;17775;57.948;12.514;2022-07-05T08:04:44;7.50;;;2.53;;
31126;SDS011;17775;57.948;12.514;2022-07-05T08:07:11;5.85;;;1.30;;
31126;SDS011;17775;57.948;12.514;2022-07-05T08:09:38;7.28;;;1.45;;
31126;SDS011;17775;57.948;12.514;2022-07-05T08:12:04;8.82;;;1.60;;
31126;SDS011;17775;57.948;12.514;2022-07-05T08:14:32;9.65;;;1.58;;
31126;SDS011;17775;57.948;12.514;2022-07-05T08:16:58;7.00;;;1.65;;
31126;SDS011;17775;57.948;12.514;2022-07-05T08:19:25;8.00;;;2.00;;
31126;SDS011;17775;57.948;12.514;2022-07-05T08:22:10;8.30;;;2.03;;
31126;SDS011;17775;57.948;12.514;2022-07-05T08:24:38;11.35;;;2.10;;
31126;SDS011;17775;57.948;12.514;2022-07-05T08:27:06;9.05;;;2.15;;
31126;SDS011;17775;57.948;12.514;2022-07-05T08:29:33;10.65;;;1.70;;
31126;SDS011;17775;57.948;12.514;2022-07-05T08:32:00;6.05;;;1.70;;
31126;SDS011;17775;57.948;12.514;2022-07-05T08:34:26;6.13;;;1.42;;
31126;SDS011;17775;57.948;12.514;2022-07-05T08:36:53;4.78;;;1.20;;
31126;SDS011;17775;57.948;12.514;2022-07-05T08:39:20;9.30;;;1.70;;
31126;SDS011;17775;57.948;12.514;2022-07-05T08:41:48;7.22;;;1.88;;
31126;SDS011;17775;57.948;12.514;2022-07-05T08:46:44;7.82;;;1.65;;
31126;SDS011;17775;57.948;12.514;2022-07-05T08:49:11;11.80;;;1.77;;
31126;SDS011;17775;57.948;12.514;2022-07-05T08:51:40;4.95;;;1.98;;
31126;SDS011;17775;57.948;12.514;2022-07-05T08:54:10;6.22;;;1.30;;
31126;SDS011;17775;57.948;12.514;2022-07-05T08:56:42;7.25;;;1.60;;
31126;SDS011;17775;57.948;12.514;2022-07-05T08:59:28;8.15;;;1.67;;
31126;SDS011;17775;57.948;12.514;2022-07-05T09:01:55;8.10;;;1.95;;
31126;SDS011;17775;57.948;12.514;2022-07-05T09:04:22;12.07;;;2.35;;
31126;SDS011;17775;57.948;12.514;2022-07-05T09:06:50;6.50;;;1.65;;
31126;SDS011;17775;57.948;12.514;2022-07-05T09:09:20;9.27;;;1.80;;
31126;SDS011;17775;57.948;12.514;2022-07-05T09:11:47;7.63;;;1.80;;
31126;SDS011;17775;57.948;12.514;2022-07-05T09:14:34;9.23;;;2.35;;
31126;SDS011;17775;57.948;12.514;2022-07-05T09:17:01;11.63;;;2.13;;
31126;SDS011;17775;57.948;12.514;2022-07-05T09:19:27;11.32;;;1.38;;
31126;SDS011;17775;57.948;12.514;2022-07-05T09:22:02;3.83;;;1.20;;
31126;SDS011;17775;57.948;12.514;2022-07-05T09:24:32;10.27;;;1.42;;
31126;SDS011;17775;57.948;12.514;2022-07-05T09:27:08;6.10;;;1.50;;
31126;SDS011;17775;57.948;12.514;2022-07-05T09:29:35;5.90;;;1.73;;
31126;SDS011;17775;57.948;12.514;2022-07-05T09:32:24;4.70;;;1.10;;
31126;SDS011;17775;57.948;12.514;2022-07-05T09:34:51;3.55;;;0.98;;
31126;SDS011;17775;57.948;12.514;2022-07-05T09:37:18;6.53;;;1.02;;
31126;SDS011;17775;57.948;12.514;2022-07-05T09:39:44;2.78;;;1.48;;
31126;SDS011;17775;57.948;12.514;2022-07-05T09:44:47;6.53;;;0.98;;
31126;SDS011;17775;57.948;12.514;2022-07-05T09:47:15;3.30;;;0.85;;
31126;SDS011;17775;57.948;12.514;2022-07-05T09:49:50;3.08;;;0.90;;
31126;SDS011;17775;57.948;12.514;2022-07-05T09:52:39;2.08;;;0.68;;
31126;SDS011;17775;57.948;12.514;2022-07-05T09:55:10;2.80;;;0.73;;
31126;SDS011;17775;57.948;12.514;2022-07-05T09:57:37;4.57;;;0.88;;
31126;SDS011;17775;57.948;12.514;2022-07-05T10:05:21;4.68;;;0.60;;
31126;SDS011;17775;57.948;12.514;2022-07-05T10:07:48;2.75;;;0.55;;
31126;SDS011;17775;57.948;12.514;2022-07-05T10:10:19;5.07;;;0.70;;
31126;SDS011;17775;57.948;12.514;2022-07-05T10:12:47;2.85;;;1.10;;
31126;SDS011;17775;57.948;12.514;2022-07-05T10:15:14;2.97;;;0.60;;
31126;SDS011;17775;57.948;12.514;2022-07-05T10:17:42;4.20;;;0.50;;
31126;SDS011;17775;57.948;12.514;2022-07-05T10:22:39;5.68;;;1.20;;
31126;SDS011;17775;57.948;12.514;2022-07-05T10:25:07;3.88;;;0.60;;
31126;SDS011;17775;57.948;12.514;2022-07-05T10:27:33;3.42;;;0.80;;
31126;SDS011;17775;57.948;12.514;2022-07-05T10:30:01;2.97;;;0.40;;
31126;SDS011;17775;57.948;12.514;2022-07-05T10:32:28;3.00;;;0.43;;
31126;SDS011;17775;57.948;12.514;2022-07-05T10:34:55;1.95;;;0.68;;
31126;SDS011;17775;57.948;12.514;2022-07-05T10:37:26;4.70;;;0.70;;
31126;SDS011;17775;57.948;12.514;2022-07-05T10:39:55;2.60;;;0.80;;
31126;SDS011;17775;57.948;12.514;2022-07-05T10:42:27;8.30;;;1.38;;
31126;SDS011;17775;57.948;12.514;2022-07-05T10:44:54;3.30;;;0.90;;
31126;SDS011;17775;57.948;12.514;2022-07-05T10:47:20;3.65;;;1.02;;
31126;SDS011;17775;57.948;12.514;2022-07-05T10:50:08;5.35;;;1.50;;
31126;SDS011;17775;57.948;12.514;2022-07-05T10:52:34;3.45;;;0.80;;
31126;SDS011;17775;57.948;12.514;2022-07-05T10:57:43;4.20;;;0.85;;
31126;SDS011;17775;57.948;12.514;2022-07-05T11:00:10;3.67;;;0.70;;
31126;SDS011;17775;57.948;12.514;2022-07-05T11:02:37;6.47;;;1.05;;
31126;SDS011;17775;57.948;12.514;2022-07-05T11:05:05;6.40;;;0.85;;
31126;SDS011;17775;57.948;12.514;2022-07-05T11:08:14;5.53;;;0.70;;
31126;SDS011;17775;57.948;12.514;2022-07-05T11:10:21;5.25;;;1.00;;
31126;SDS011;17775;57.948;12.514;2022-07-05T11:12:48;3.20;;;0.80;;
31126;SDS011;17775;57.948;12.514;2022-07-05T11:15:14;8.50;;;1.63;;
31126;SDS011;17775;57.948;12.514;2022-07-05T11:17:41;4.00;;;0.90;;
31126;SDS011;17775;57.948;12.514;2022-07-05T11:20:28;3.00;;;0.65;;
31126;SDS011;17775;57.948;12.514;2022-07-05T11:23:05;6.28;;;0.70;;
31126;SDS011;17775;57.948;12.514;2022-07-05T11:25:33;4.25;;;0.93;;
31126;SDS011;17775;57.948;12.514;2022-07-05T11:28:01;5.35;;;0.90;;
31126;SDS011;17775;57.948;12.514;2022-07-05T11:30:43;5.28;;;1.30;;
31126;SDS011;17775;57.948;12.514;2022-07-05T11:33:29;4.32;;;0.80;;
31126;SDS011;17775;57.948;12.514;2022-07-05T11:35:56;5.72;;;1.00;;
31126;SDS011;17775;57.948;12.514;2022-07-05T11:38:25;5.75;;;0.98;;
31126;SDS011;17775;57.948;12.514;2022-07-05T11:41:13;3.45;;;0.70;;
31126;SDS011;17775;57.948;12.514;2022-07-05T11:43:40;4.57;;;0.88;;
31126;SDS011;17775;57.948;12.514;2022-07-05T11:46:08;6.45;;;1.10;;
31126;SDS011;17775;57.948;12.514;2022-07-05T11:48:55;7.20;;;1.02;;
31126;SDS011;17775;57.948;12.514;2022-07-05T11:51:21;5.85;;;1.80;;
31126;SDS011;17775;57.948;12.514;2022-07-05T11:53:48;4.65;;;1.10;;
31126;SDS011;17775;57.948;12.514;2022-07-05T11:56:35;4.70;;;1.35;;
31126;SDS011;17775;57.948;12.514;2022-07-05T11:59:15;4.47;;;0.85;;
31126;SDS011;17775;57.948;12.514;2022-07-05T12:01:46;4.28;;;0.70;;
31126;SDS011;17775;57.948;12.514;2022-07-05T12:04:28;6.47;;;1.00;;
31126;SDS011;17775;57.948;12.514;2022-07-05T12:06:55;4.32;;;1.17;;
31126;SDS011;17775;57.948;12.514;2022-07-05T12:09:26;3.97;;;1.13;;
31126;SDS011;17775;57.948;12.514;2022-07-05T12:11:53;4.97;;;0.93;;
31126;SDS011;17775;57.948;12.514;2022-07-05T12:14:50;3.17;;;0.70;;
31126;SDS011;17775;57.948;12.514;2022-07-05T12:17:17;2.90;;;0.60;;
31126;SDS011;17775;57.948;12.514;2022-07-05T12:19:51;2.95;;;0.90;;
31126;SDS011;17775;57.948;12.514;2022-07-05T12:22:26;2.65;;;0.80;;
31126;SDS011;17775;57.948;12.514;2022-07-05T12:24:53;5.55;;;0.70;;
31126;SDS011;17775;57.948;12.514;2022-07-05T12:27:19;2.30;;;0.70;;
31126;SDS011;17775;57.948;12.514;2022-07-05T12:29:46;10.05;;;1.50;;
31126;SDS011;17775;57.948;12.514;2022-07-05T12:32:13;7.85;;;1.38;;
31126;SDS011;17775;57.948;12.514;2022-07-05T12:34:40;8.70;;;1.65;;
31126;SDS011;17775;57.948;12.514;2022-07-05T12:37:06;9.13;;;1.25;;
31126;SDS011;17775;57.948;12.514;2022-07-05T12:39:34;10.02;;;1.55;;
31126;SDS011;17775;57.948;12.514;2022-07-05T12:42:00;7.03;;;1.40;;
31126;SDS011;17775;57.948;12.514;2022-07-05T12:44:27;4.88;;;1.10;;
31126;SDS011;17775;57.948;12.514;2022-07-05T12:47:03;3.47;;;1.08;;
31126;SDS011;17775;57.948;12.514;2022-07-05T12:49:30;5.60;;;1.30;;
31126;SDS011;17775;57.948;12.514;2022-07-05T12:52:02;5.78;;;1.00;;
31126;SDS011;17775;57.948;12.514;2022-07-05T12:54:33;5.25;;;1.08;;
31126;SDS011;17775;57.948;12.514;2022-07-05T12:57:18;4.88;;;0.95;;
31126;SDS011;17775;57.948;12.514;2022-07-05T13:00:04;6.57;;;1.60;;
31126;SDS011;17775;57.948;12.514;2022-07-05T13:02:41;5.35;;;1.33;;
31126;SDS011;17775;57.948;12.514;2022-07-05T13:05:09;3.88;;;1.20;;
31126;SDS011;17775;57.948;12.514;2022-07-05T13:07:42;4.65;;;1.40;;
31126;SDS011;17775;57.948;12.514;2022-07-05T13:10:16;5.03;;;1.40;;
31126;SDS011;17775;57.948;12.514;2022-07-05T13:12:42;4.70;;;1.10;;
31126;SDS011;17775;57.948;12.514;2022-07-05T13:15:09;3.30;;;1.05;;
31126;SDS011;17775;57.948;12.514;2022-07-05T13:17:37;3.75;;;0.60;;
31126;SDS011;17775;57.948;12.514;2022-07-05T13:20:04;5.97;;;1.08;;
31126;SDS011;17775;57.948;12.514;2022-07-05T13:22:30;2.63;;;0.70;;
31126;SDS011;17775;57.948;12.514;2022-07-05T13:24:57;4.82;;;1.42;;
31126;SDS011;17775;57.948;12.514;2022-07-05T13:27:23;5.82;;;1.10;;
31126;SDS011;17775;57.948;12.514;2022-07-05T13:29:54;2.75;;;0.70;;
31126;SDS011;17775;57.948;12.514;2022-07-05T13:32:21;6.45;;;0.98;;
31126;SDS011;17775;57.948;12.514;2022-07-05T13:34:48;8.05;;;1.35;;
31126;SDS011;17775;57.948;12.514;2022-07-05T13:37:15;6.35;;;1.25;;
31126;SDS011;17775;57.948;12.514;2022-07-05T13:39:41;6.80;;;0.80;;
31126;SDS011;17775;57.948;12.514;2022-07-05T13:42:08;3.00;;;0.70;;
31126;SDS011;17775;57.948;12.514;2022-07-05T13:44:35;6.88;;;0.90;;
31126;SDS011;17775;57.948;12.514;2022-07-05T13:47:02;4.28;;;0.90;;
31126;SDS011;17775;57.948;12.514;2022-07-05T13:49:30;5.13;;;1.00;;
31126;SDS011;17775;57.948;12.514;2022-07-05T13:51:57;6.38;;;0.90;;
31126;SDS011;17775;57.948;12.514;2022-07-05T13:54:27;3.55;;;1.02;;
31126;SDS011;17775;57.948;12.514;2022-07-05T13:56:53;6.88;;;2.03;;
31126;SDS011;17775;57.948;12.514;2022-07-05T13:59:20;5.57;;;0.75;;
31126;SDS011;17775;57.948;12.514;2022-07-05T14:01:46;3.88;;;1.02;;
31126;SDS011;17775;57.948;12.514;2022-07-05T14:04:13;4.20;;;0.77;;
31126;SDS011;17775;57.948;12.514;2022-07-05T14:06:40;4.93;;;1.17;;
31126;SDS011;17775;57.948;12.514;2022-07-05T14:09:06;5.78;;;0.88;;
31126;SDS011;17775;57.948;12.514;2022-07-05T14:11:34;2.35;;;0.80;;
31126;SDS011;17775;57.948;12.514;2022-07-05T14:14:01;5.53;;;1.17;;
31126;SDS011;17775;57.948;12.514;2022-07-05T14:16:27;8.02;;;1.35;;
31126;SDS011;17775;57.948;12.514;2022-07-05T14:18:54;4.20;;;0.77;;
31126;SDS011;17775;57.948;12.514;2022-07-05T14:21:22;6.00;;;0.70;;
31126;SDS011;17775;57.948;12.514;2022-07-05T14:24:02;3.80;;;0.65;;
31126;SDS011;17775;57.948;12.514;2022-07-05T14:26:28;5.50;;;0.80;;
31126;SDS011;17775;57.948;12.514;2022-07-05T14:28:55;3.03;;;0.70;;
31126;SDS011;17775;57.948;12.514;2022-07-05T14:31:24;4.63;;;1.00;;
31126;SDS011;17775;57.948;12.514;2022-07-05T14:33:53;4.40;;;1.00;;
31126;SDS011;17775;57.948;12.514;2022-07-05T14:36:20;6.40;;;1.10;;
31126;SDS011;17775;57.948;12.514;2022-07-05T14:38:46;4.45;;;1.08;;
31126;SDS011;17775;57.948;12.514;2022-07-05T14:41:13;6.93;;;1.33;;
31126;SDS011;17775;57.948;12.514;2022-07-05T14:43:40;6.18;;;1.33;;
31126;SDS011;17775;57.948;12.514;2022-07-05T14:46:06;2.95;;;0.75;;
31126;SDS011;17775;57.948;12.514;2022-07-05T14:48:34;6.70;;;0.93;;
31126;SDS011;17775;57.948;12.514;2022-07-05T14:51:01;4.13;;;1.08;;
31126;SDS011;17775;57.948;12.514;2022-07-05T14:53:27;8.05;;;1.48;;
31126;SDS011;17775;57.948;12.514;2022-07-05T14:55:54;3.65;;;0.95;;
31126;SDS011;17775;57.948;12.514;2022-07-05T14:58:21;5.85;;;1.23;;
31126;SDS011;17775;57.948;12.514;2022-07-05T15:00:47;5.80;;;0.80;;